Crane Gaia — 3FXX2 — position and weather

sailwx.info

Track history (hours):
 
Tides and Currents Weather Stations Pressure Air Temp Water Temp Dewpoint Dewpoint Depression Visibility Wind Speed Wind Dir Waves Ship Positions

Crane Gaia

Last reported at 2017-Oct-10 10:41 UTC. Time now 2017-Oct-17 17:19 UTC.
Position N 22°43' E 120°08'.

Length 115 m; draft 5.7 m.

Type: Tanker. MMSI: 352461000.

Date/timePositionNaut miles runAvg speedWind from/ knotsBaromVisibWave heightAir tempDewpointWater temp
2017-Oct-10 10:41N 22°43' E 120°08'214.2
2017-Oct-10 10:30N 22°42' E 120°10'612.8
2017-Oct-10 10:00N 22°37' E 120°15'3 7.0
2017-Oct-10 09:30N 22°35' E 120°18'0 0.0
2017-Oct-09 23:18N 22°35' E 120°18'1 3.4
2017-Oct-09 23:00N 22°36' E 120°17'1 0.0
2017-Oct-08 18:28N 22°36' E 120°18'1 2.4
2017-Oct-08 18:00N 22°37' E 120°17'4 8.0
2017-Oct-08 17:30N 22°37' E 120°13'4 9.0
2017-Oct-08 17:00N 22°40' E 120°09'510.8
2017-Oct-08 16:30N 22°43' E 120°05'  
Track history (hours):
 
Tides and Currents Weather Stations Pressure Air Temp Water Temp Dewpoint Dewpoint Depression Visibility Wind Speed Wind Dir Waves Ship Positions

Crane Gaia

Last reported at 2017-Oct-10 10:41 UTC. Time now 2017-Oct-17 17:19 UTC.
Position N 22°43' E 120°08'.

Length 115 m; draft 5.7 m.

Type: Tanker. MMSI: 352461000.

Date/timePositionNaut miles runAvg speedWind from/ knotsBaromVisibWave heightAir tempDewpointWater temp
2017-Oct-10 10:41N 22°43' E 120°08'214.2
2017-Oct-10 10:30N 22°42' E 120°10'612.8
2017-Oct-10 10:00N 22°37' E 120°15'3 7.0
2017-Oct-10 09:30N 22°35' E 120°18'0 0.0
2017-Oct-09 23:18N 22°35' E 120°18'1 3.4
2017-Oct-09 23:00N 22°36' E 120°17'1 0.0
2017-Oct-08 18:28N 22°36' E 120°18'1 2.4
2017-Oct-08 18:00N 22°37' E 120°17'4 8.0
2017-Oct-08 17:30N 22°37' E 120°13'4 9.0
2017-Oct-08 17:00N 22°40' E 120°09'510.8
2017-Oct-08 16:30N 22°43' E 120°05'  

Dump ship's entire track history